sensor_id;sensor_type;location;lat;lon;timestamp;P1;durP1;ratioP1;P2;durP2;ratioP2
71629;SDS011;59479;51.902;8.212;2023-10-08T00:01:34;5.27;;;2.47;;
71629;SDS011;59479;51.902;8.212;2023-10-08T00:04:00;7.90;;;2.67;;
71629;SDS011;59479;51.902;8.212;2023-10-08T00:06:29;7.05;;;2.50;;
71629;SDS011;59479;51.902;8.212;2023-10-08T00:08:55;7.10;;;2.72;;
71629;SDS011;59479;51.902;8.212;2023-10-08T00:11:25;8.32;;;3.08;;
71629;SDS011;59479;51.902;8.212;2023-10-08T00:13:50;5.97;;;2.80;;
71629;SDS011;59479;51.902;8.212;2023-10-08T00:16:20;7.13;;;2.80;;
71629;SDS011;59479;51.902;8.212;2023-10-08T00:18:47;8.25;;;2.97;;
71629;SDS011;59479;51.902;8.212;2023-10-08T00:21:16;8.15;;;2.58;;
71629;SDS011;59479;51.902;8.212;2023-10-08T00:23:45;11.73;;;2.63;;
71629;SDS011;59479;51.902;8.212;2023-10-08T00:26:20;8.85;;;3.03;;
71629;SDS011;59479;51.902;8.212;2023-10-08T00:28:55;6.68;;;2.50;;
71629;SDS011;59479;51.902;8.212;2023-10-08T00:31:24;10.50;;;3.47;;
71629;SDS011;59479;51.902;8.212;2023-10-08T00:33:56;8.27;;;2.90;;
71629;SDS011;59479;51.902;8.212;2023-10-08T00:36:22;6.57;;;2.83;;
71629;SDS011;59479;51.902;8.212;2023-10-08T00:38:49;7.50;;;2.67;;
71629;SDS011;59479;51.902;8.212;2023-10-08T00:41:18;6.72;;;2.40;;
71629;SDS011;59479;51.902;8.212;2023-10-08T00:43:47;10.57;;;2.63;;
71629;SDS011;59479;51.902;8.212;2023-10-08T00:46:13;8.55;;;2.90;;
71629;SDS011;59479;51.902;8.212;2023-10-08T00:48:49;10.77;;;2.90;;
71629;SDS011;59479;51.902;8.212;2023-10-08T00:51:18;6.80;;;2.58;;
71629;SDS011;59479;51.902;8.212;2023-10-08T00:53:52;11.68;;;2.65;;
71629;SDS011;59479;51.902;8.212;2023-10-08T00:56:28;6.47;;;2.85;;
71629;SDS011;59479;51.902;8.212;2023-10-08T00:59:14;11.02;;;3.30;;
71629;SDS011;59479;51.902;8.212;2023-10-08T01:01:41;9.88;;;2.88;;
71629;SDS011;59479;51.902;8.212;2023-10-08T01:04:14;5.90;;;2.47;;
71629;SDS011;59479;51.902;8.212;2023-10-08T01:06:41;10.05;;;3.38;;
71629;SDS011;59479;51.902;8.212;2023-10-08T01:09:06;8.40;;;2.97;;
71629;SDS011;59479;51.902;8.212;2023-10-08T01:11:43;9.10;;;2.92;;
71629;SDS011;59479;51.902;8.212;2023-10-08T01:14:15;5.32;;;2.38;;
71629;SDS011;59479;51.902;8.212;2023-10-08T01:16:42;9.52;;;2.83;;
71629;SDS011;59479;51.902;8.212;2023-10-08T01:19:11;9.30;;;3.00;;
71629;SDS011;59479;51.902;8.212;2023-10-08T01:21:39;8.13;;;2.57;;
71629;SDS011;59479;51.902;8.212;2023-10-08T01:24:05;9.73;;;2.47;;
71629;SDS011;59479;51.902;8.212;2023-10-08T01:26:35;8.40;;;2.72;;
71629;SDS011;59479;51.902;8.212;2023-10-08T01:29:04;6.55;;;2.33;;
71629;SDS011;59479;51.902;8.212;2023-10-08T01:31:31;9.25;;;3.08;;
71629;SDS011;59479;51.902;8.212;2023-10-08T01:33:57;12.73;;;2.77;;
71629;SDS011;59479;51.902;8.212;2023-10-08T01:36:23;5.37;;;2.70;;
71629;SDS011;59479;51.902;8.212;2023-10-08T01:38:50;9.80;;;3.10;;
71629;SDS011;59479;51.902;8.212;2023-10-08T01:41:16;9.53;;;3.40;;
71629;SDS011;59479;51.902;8.212;2023-10-08T01:43:48;13.70;;;3.33;;
71629;SDS011;59479;51.902;8.212;2023-10-08T01:46:17;9.32;;;2.88;;
71629;SDS011;59479;51.902;8.212;2023-10-08T01:48:46;7.45;;;2.80;;
71629;SDS011;59479;51.902;8.212;2023-10-08T01:51:18;9.63;;;2.70;;
71629;SDS011;59479;51.902;8.212;2023-10-08T01:53:53;9.35;;;2.70;;
71629;SDS011;59479;51.902;8.212;2023-10-08T01:56:23;11.93;;;2.83;;
71629;SDS011;59479;51.902;8.212;2023-10-08T01:58:49;7.72;;;3.08;;
71629;SDS011;59479;51.902;8.212;2023-10-08T02:01:18;7.07;;;2.67;;
71629;SDS011;59479;51.902;8.212;2023-10-08T02:03:44;8.33;;;3.07;;
71629;SDS011;59479;51.902;8.212;2023-10-08T02:06:10;8.30;;;2.70;;
71629;SDS011;59479;51.902;8.212;2023-10-08T02:08:37;10.47;;;2.97;;
71629;SDS011;59479;51.902;8.212;2023-10-08T02:11:03;8.70;;;2.75;;
71629;SDS011;59479;51.902;8.212;2023-10-08T02:13:28;3.63;;;1.50;;
71629;SDS011;59479;51.902;8.212;2023-10-08T02:15:54;6.63;;;1.70;;
71629;SDS011;59479;51.902;8.212;2023-10-08T02:18:19;2.77;;;1.07;;
71629;SDS011;59479;51.902;8.212;2023-10-08T02:20:48;2.60;;;0.90;;
71629;SDS011;59479;51.902;8.212;2023-10-08T02:23:13;2.60;;;0.90;;
71629;SDS011;59479;51.902;8.212;2023-10-08T02:25:39;2.50;;;0.90;;
71629;SDS011;59479;51.902;8.212;2023-10-08T02:28:05;2.13;;;0.65;;
71629;SDS011;59479;51.902;8.212;2023-10-08T02:30:33;1.88;;;0.52;;
71629;SDS011;59479;51.902;8.212;2023-10-08T02:32:59;2.20;;;0.60;;
71629;SDS011;59479;51.902;8.212;2023-10-08T02:35:24;2.57;;;1.03;;
71629;SDS011;59479;51.902;8.212;2023-10-08T02:37:50;2.20;;;0.70;;
71629;SDS011;59479;51.902;8.212;2023-10-08T02:40:15;2.00;;;0.60;;
71629;SDS011;59479;51.902;8.212;2023-10-08T02:43:01;2.30;;;0.80;;
71629;SDS011;59479;51.902;8.212;2023-10-08T02:45:27;2.30;;;0.77;;
71629;SDS011;59479;51.902;8.212;2023-10-08T02:47:53;3.70;;;0.70;;
71629;SDS011;59479;51.902;8.212;2023-10-08T02:50:19;2.47;;;0.70;;
71629;SDS011;59479;51.902;8.212;2023-10-08T02:52:47;2.20;;;0.60;;
71629;SDS011;59479;51.902;8.212;2023-10-08T02:55:15;2.20;;;0.88;;
71629;SDS011;59479;51.902;8.212;2023-10-08T02:57:59;2.27;;;0.77;;
71629;SDS011;59479;51.902;8.212;2023-10-08T03:00:27;2.08;;;0.60;;
71629;SDS011;59479;51.902;8.212;2023-10-08T03:02:59;2.50;;;0.75;;
71629;SDS011;59479;51.902;8.212;2023-10-08T03:05:26;2.20;;;0.90;;
71629;SDS011;59479;51.902;8.212;2023-10-08T03:07:56;2.10;;;0.70;;
71629;SDS011;59479;51.902;8.212;2023-10-08T03:10:23;2.70;;;0.70;;
71629;SDS011;59479;51.902;8.212;2023-10-08T03:12:57;2.20;;;0.80;;
71629;SDS011;59479;51.902;8.212;2023-10-08T03:15:28;2.20;;;0.60;;
71629;SDS011;59479;51.902;8.212;2023-10-08T03:17:54;2.20;;;0.70;;
71629;SDS011;59479;51.902;8.212;2023-10-08T03:20:22;2.60;;;0.70;;
71629;SDS011;59479;51.902;8.212;2023-10-08T03:23:07;2.10;;;0.60;;
71629;SDS011;59479;51.902;8.212;2023-10-08T03:25:41;2.10;;;0.60;;
71629;SDS011;59479;51.902;8.212;2023-10-08T03:28:09;1.92;;;0.60;;
71629;SDS011;59479;51.902;8.212;2023-10-08T03:30:38;2.17;;;0.70;;
71629;SDS011;59479;51.902;8.212;2023-10-08T03:33:14;2.10;;;0.68;;
71629;SDS011;59479;51.902;8.212;2023-10-08T03:35:47;2.10;;;0.60;;
71629;SDS011;59479;51.902;8.212;2023-10-08T03:38:20;2.15;;;0.68;;
71629;SDS011;59479;51.902;8.212;2023-10-08T03:41:09;2.30;;;0.75;;
71629;SDS011;59479;51.902;8.212;2023-10-08T03:43:40;1.87;;;0.50;;
71629;SDS011;59479;51.902;8.212;2023-10-08T03:46:17;2.13;;;0.60;;
71629;SDS011;59479;51.902;8.212;2023-10-08T03:48:43;2.20;;;0.80;;
71629;SDS011;59479;51.902;8.212;2023-10-08T03:51:10;2.22;;;0.70;;
71629;SDS011;59479;51.902;8.212;2023-10-08T03:53:39;2.40;;;0.80;;
71629;SDS011;59479;51.902;8.212;2023-10-08T03:56:23;2.40;;;0.80;;
71629;SDS011;59479;51.902;8.212;2023-10-08T03:58:50;2.60;;;0.80;;
71629;SDS011;59479;51.902;8.212;2023-10-08T04:01:19;2.03;;;0.60;;
71629;SDS011;59479;51.902;8.212;2023-10-08T04:03:45;3.95;;;0.63;;
71629;SDS011;59479;51.902;8.212;2023-10-08T04:06:16;2.13;;;0.85;;
71629;SDS011;59479;51.902;8.212;2023-10-08T04:08:47;2.40;;;0.70;;
71629;SDS011;59479;51.902;8.212;2023-10-08T04:11:26;2.53;;;0.98;;
71629;SDS011;59479;51.902;8.212;2023-10-08T04:13:57;2.20;;;0.70;;
71629;SDS011;59479;51.902;8.212;2023-10-08T04:16:26;2.20;;;0.70;;
71629;SDS011;59479;51.902;8.212;2023-10-08T04:18:53;2.30;;;0.60;;
71629;SDS011;59479;51.902;8.212;2023-10-08T04:21:21;2.30;;;0.70;;
71629;SDS011;59479;51.902;8.212;2023-10-08T04:23:47;3.00;;;0.93;;
71629;SDS011;59479;51.902;8.212;2023-10-08T04:26:16;2.30;;;0.77;;
71629;SDS011;59479;51.902;8.212;2023-10-08T04:28:43;2.30;;;0.77;;
71629;SDS011;59479;51.902;8.212;2023-10-08T04:31:08;2.60;;;0.90;;
71629;SDS011;59479;51.902;8.212;2023-10-08T04:33:43;2.30;;;0.70;;
71629;SDS011;59479;51.902;8.212;2023-10-08T04:36:09;2.28;;;0.75;;
71629;SDS011;59479;51.902;8.212;2023-10-08T04:38:42;2.45;;;0.80;;
71629;SDS011;59479;51.902;8.212;2023-10-08T04:41:10;2.40;;;0.83;;
71629;SDS011;59479;51.902;8.212;2023-10-08T04:43:36;2.45;;;0.93;;
71629;SDS011;59479;51.902;8.212;2023-10-08T04:46:07;2.30;;;0.73;;
71629;SDS011;59479;51.902;8.212;2023-10-08T04:48:47;2.20;;;0.70;;
71629;SDS011;59479;51.902;8.212;2023-10-08T04:51:14;2.73;;;0.80;;
71629;SDS011;59479;51.902;8.212;2023-10-08T04:53:40;2.47;;;0.80;;
71629;SDS011;59479;51.902;8.212;2023-10-08T04:56:08;2.70;;;1.00;;
71629;SDS011;59479;51.902;8.212;2023-10-08T04:58:43;2.42;;;0.90;;
71629;SDS011;59479;51.902;8.212;2023-10-08T05:01:16;2.90;;;1.08;;
71629;SDS011;59479;51.902;8.212;2023-10-08T05:06:24;2.97;;;0.90;;
71629;SDS011;59479;51.902;8.212;2023-10-08T05:09:02;3.03;;;0.82;;
71629;SDS011;59479;51.902;8.212;2023-10-08T05:11:44;2.53;;;0.80;;
71629;SDS011;59479;51.902;8.212;2023-10-08T05:14:17;2.47;;;0.70;;
71629;SDS011;59479;51.902;8.212;2023-10-08T05:16:55;2.42;;;0.70;;
71629;SDS011;59479;51.902;8.212;2023-10-08T05:19:47;2.50;;;0.70;;
71629;SDS011;59479;51.902;8.212;2023-10-08T05:22:21;2.60;;;0.90;;
71629;SDS011;59479;51.902;8.212;2023-10-08T05:24:52;2.50;;;0.90;;
71629;SDS011;59479;51.902;8.212;2023-10-08T05:27:36;2.60;;;0.90;;
71629;SDS011;59479;51.902;8.212;2023-10-08T05:30:03;2.63;;;0.82;;
71629;SDS011;59479;51.902;8.212;2023-10-08T05:32:43;2.10;;;0.70;;
71629;SDS011;59479;51.902;8.212;2023-10-08T05:35:27;2.42;;;0.80;;
71629;SDS011;59479;51.902;8.212;2023-10-08T05:38:03;2.80;;;1.48;;
71629;SDS011;59479;51.902;8.212;2023-10-08T05:40:47;2.80;;;1.00;;
71629;SDS011;59479;51.902;8.212;2023-10-08T05:46:05;2.63;;;1.03;;
71629;SDS011;59479;51.902;8.212;2023-10-08T05:48:47;2.90;;;0.88;;
71629;SDS011;59479;51.902;8.212;2023-10-08T05:51:27;2.80;;;1.00;;
71629;SDS011;59479;51.902;8.212;2023-10-08T05:54:20;3.47;;;0.93;;
71629;SDS011;59479;51.902;8.212;2023-10-08T05:56:52;4.38;;;1.10;;
71629;SDS011;59479;51.902;8.212;2023-10-08T05:59:36;4.73;;;0.87;;
71629;SDS011;59479;51.902;8.212;2023-10-08T06:02:20;2.40;;;1.00;;
71629;SDS011;59479;51.902;8.212;2023-10-08T06:04:59;2.95;;;1.02;;
71629;SDS011;59479;51.902;8.212;2023-10-08T06:07:49;3.42;;;0.90;;
71629;SDS011;59479;51.902;8.212;2023-10-08T06:15:47;3.10;;;1.05;;
71629;SDS011;59479;51.902;8.212;2023-10-08T06:18:16;4.13;;;1.20;;
71629;SDS011;59479;51.902;8.212;2023-10-08T06:20:50;4.10;;;1.05;;
71629;SDS011;59479;51.902;8.212;2023-10-08T06:23:19;3.47;;;1.42;;
71629;SDS011;59479;51.902;8.212;2023-10-08T06:25:48;2.87;;;0.97;;
71629;SDS011;59479;51.902;8.212;2023-10-08T06:28:19;3.25;;;1.02;;
71629;SDS011;59479;51.902;8.212;2023-10-08T06:30:46;2.47;;;0.90;;
71629;SDS011;59479;51.902;8.212;2023-10-08T06:33:13;3.75;;;0.90;;
71629;SDS011;59479;51.902;8.212;2023-10-08T06:35:39;4.45;;;1.13;;
71629;SDS011;59479;51.902;8.212;2023-10-08T06:38:09;3.77;;;0.93;;
71629;SDS011;59479;51.902;8.212;2023-10-08T06:40:36;3.00;;;0.90;;
71629;SDS011;59479;51.902;8.212;2023-10-08T06:43:01;2.83;;;1.05;;
71629;SDS011;59479;51.902;8.212;2023-10-08T06:45:41;3.70;;;1.20;;
71629;SDS011;59479;51.902;8.212;2023-10-08T06:48:11;5.63;;;1.30;;
71629;SDS011;59479;51.902;8.212;2023-10-08T06:50:43;4.27;;;0.80;;
71629;SDS011;59479;51.902;8.212;2023-10-08T06:53:10;3.20;;;0.90;;
71629;SDS011;59479;51.902;8.212;2023-10-08T06:55:38;5.40;;;0.85;;
71629;SDS011;59479;51.902;8.212;2023-10-08T06:58:05;2.70;;;0.82;;
71629;SDS011;59479;51.902;8.212;2023-10-08T07:00:40;2.80;;;1.20;;
71629;SDS011;59479;51.902;8.212;2023-10-08T07:03:12;6.78;;;1.00;;
71629;SDS011;59479;51.902;8.212;2023-10-08T07:05:45;2.90;;;1.10;;
71629;SDS011;59479;51.902;8.212;2023-10-08T07:08:32;4.83;;;0.90;;
71629;SDS011;59479;51.902;8.212;2023-10-08T07:11:01;4.97;;;0.88;;
71629;SDS011;59479;51.902;8.212;2023-10-08T07:13:32;4.00;;;0.80;;
71629;SDS011;59479;51.902;8.212;2023-10-08T07:16:01;2.60;;;0.80;;
71629;SDS011;59479;51.902;8.212;2023-10-08T07:18:29;3.67;;;1.00;;
71629;SDS011;59479;51.902;8.212;2023-10-08T07:20:57;2.60;;;0.80;;
71629;SDS011;59479;51.902;8.212;2023-10-08T07:23:26;5.85;;;0.80;;
71629;SDS011;59479;51.902;8.212;2023-10-08T07:25:59;4.55;;;1.00;;
71629;SDS011;59479;51.902;8.212;2023-10-08T07:28:38;5.65;;;1.05;;
71629;SDS011;59479;51.902;8.212;2023-10-08T07:31:17;2.50;;;0.88;;
71629;SDS011;59479;51.902;8.212;2023-10-08T07:33:46;4.93;;;1.07;;
71629;SDS011;59479;51.902;8.212;2023-10-08T07:36:13;3.97;;;0.88;;
71629;SDS011;59479;51.902;8.212;2023-10-08T07:38:43;2.88;;;0.88;;
71629;SDS011;59479;51.902;8.212;2023-10-08T07:41:13;3.47;;;1.17;;
71629;SDS011;59479;51.902;8.212;2023-10-08T07:43:50;2.80;;;1.02;;
71629;SDS011;59479;51.902;8.212;2023-10-08T07:46:24;2.90;;;1.23;;
71629;SDS011;59479;51.902;8.212;2023-10-08T07:48:55;6.40;;;1.20;;
71629;SDS011;59479;51.902;8.212;2023-10-08T07:51:23;4.40;;;1.48;;
71629;SDS011;59479;51.902;8.212;2023-10-08T07:53:49;3.38;;;1.42;;
71629;SDS011;59479;51.902;8.212;2023-10-08T07:56:23;4.47;;;1.30;;
71629;SDS011;59479;51.902;8.212;2023-10-08T07:58:49;5.00;;;1.02;;
71629;SDS011;59479;51.902;8.212;2023-10-08T08:01:15;2.72;;;1.13;;
71629;SDS011;59479;51.902;8.212;2023-10-08T08:03:40;3.97;;;1.10;;
71629;SDS011;59479;51.902;8.212;2023-10-08T08:06:07;2.70;;;1.20;;
71629;SDS011;59479;51.902;8.212;2023-10-08T08:08:38;3.60;;;0.90;;
71629;SDS011;59479;51.902;8.212;2023-10-08T08:11:07;3.90;;;1.30;;
71629;SDS011;59479;51.902;8.212;2023-10-08T08:13:42;3.03;;;1.05;;
71629;SDS011;59479;51.902;8.212;2023-10-08T08:16:10;3.45;;;0.98;;
71629;SDS011;59479;51.902;8.212;2023-10-08T08:18:45;3.35;;;1.23;;
71629;SDS011;59479;51.902;8.212;2023-10-08T08:21:15;3.85;;;1.15;;
71629;SDS011;59479;51.902;8.212;2023-10-08T08:23:45;4.00;;;1.20;;
71629;SDS011;59479;51.902;8.212;2023-10-08T08:26:15;3.35;;;1.10;;
71629;SDS011;59479;51.902;8.212;2023-10-08T08:29:01;5.32;;;1.20;;
71629;SDS011;59479;51.902;8.212;2023-10-08T08:31:27;3.10;;;1.17;;
71629;SDS011;59479;51.902;8.212;2023-10-08T08:33:56;2.90;;;1.20;;
71629;SDS011;59479;51.902;8.212;2023-10-08T08:36:24;2.90;;;1.10;;
71629;SDS011;59479;51.902;8.212;2023-10-08T08:38:51;4.05;;;1.33;;
71629;SDS011;59479;51.902;8.212;2023-10-08T08:41:17;4.22;;;1.30;;
71629;SDS011;59479;51.902;8.212;2023-10-08T08:43:52;5.68;;;1.38;;
71629;SDS011;59479;51.902;8.212;2023-10-08T08:46:30;2.85;;;1.23;;
71629;SDS011;59479;51.902;8.212;2023-10-08T08:49:00;5.83;;;1.53;;
71629;SDS011;59479;51.902;8.212;2023-10-08T08:51:29;4.35;;;1.30;;
71629;SDS011;59479;51.902;8.212;2023-10-08T08:53:55;7.53;;;1.73;;
71629;SDS011;59479;51.902;8.212;2023-10-08T08:56:20;4.17;;;1.40;;
71629;SDS011;59479;51.902;8.212;2023-10-08T08:58:47;3.83;;;1.17;;
71629;SDS011;59479;51.902;8.212;2023-10-08T09:01:14;6.65;;;1.95;;
71629;SDS011;59479;51.902;8.212;2023-10-08T09:03:42;4.28;;;1.40;;
71629;SDS011;59479;51.902;8.212;2023-10-08T09:06:09;5.83;;;1.20;;
71629;SDS011;59479;51.902;8.212;2023-10-08T09:08:36;3.42;;;1.52;;
71629;SDS011;59479;51.902;8.212;2023-10-08T09:11:02;2.90;;;1.33;;
71629;SDS011;59479;51.902;8.212;2023-10-08T09:13:33;3.38;;;1.30;;
71629;SDS011;59479;51.902;8.212;2023-10-08T09:16:13;3.00;;;1.07;;
71629;SDS011;59479;51.902;8.212;2023-10-08T09:18:41;5.60;;;1.20;;
71629;SDS011;59479;51.902;8.212;2023-10-08T09:21:12;6.20;;;1.23;;
71629;SDS011;59479;51.902;8.212;2023-10-08T09:23:43;7.97;;;1.65;;
71629;SDS011;59479;51.902;8.212;2023-10-08T09:26:11;4.88;;;1.55;;
71629;SDS011;59479;51.902;8.212;2023-10-08T09:28:44;6.33;;;1.03;;
71629;SDS011;59479;51.902;8.212;2023-10-08T09:31:17;5.05;;;1.05;;
71629;SDS011;59479;51.902;8.212;2023-10-08T09:33:58;6.72;;;1.20;;
71629;SDS011;59479;51.902;8.212;2023-10-08T09:36:26;4.38;;;0.95;;
71629;SDS011;59479;51.902;8.212;2023-10-08T09:39:07;3.88;;;1.15;;
71629;SDS011;59479;51.902;8.212;2023-10-08T09:41:46;5.03;;;1.20;;
71629;SDS011;59479;51.902;8.212;2023-10-08T09:44:46;4.93;;;1.27;;
71629;SDS011;59479;51.902;8.212;2023-10-08T09:48:15;3.67;;;1.30;;
71629;SDS011;59479;51.902;8.212;2023-10-08T09:51:00;3.83;;;1.25;;
71629;SDS011;59479;51.902;8.212;2023-10-08T09:56:29;3.50;;;1.03;;
71629;SDS011;59479;51.902;8.212;2023-10-08T09:58:56;4.10;;;1.38;;
71629;SDS011;59479;51.902;8.212;2023-10-08T10:01:24;4.78;;;1.42;;
71629;SDS011;59479;51.902;8.212;2023-10-08T10:04:05;7.38;;;1.15;;
71629;SDS011;59479;51.902;8.212;2023-10-08T10:06:45;3.15;;;1.27;;
71629;SDS011;59479;51.902;8.212;2023-10-08T10:09:15;3.57;;;1.27;;
71629;SDS011;59479;51.902;8.212;2023-10-08T10:11:50;3.65;;;0.88;;
71629;SDS011;59479;51.902;8.212;2023-10-08T10:14:18;3.47;;;1.10;;
71629;SDS011;59479;51.902;8.212;2023-10-08T10:16:47;5.30;;;1.17;;
71629;SDS011;59479;51.902;8.212;2023-10-08T10:19:20;4.18;;;1.05;;
71629;SDS011;59479;51.902;8.212;2023-10-08T10:21:55;3.10;;;1.00;;
71629;SDS011;59479;51.902;8.212;2023-10-08T10:24:22;5.22;;;1.20;;
71629;SDS011;59479;51.902;8.212;2023-10-08T10:26:52;3.30;;;1.17;;
71629;SDS011;59479;51.902;8.212;2023-10-08T10:29:35;4.03;;;1.20;;
71629;SDS011;59479;51.902;8.212;2023-10-08T10:32:01;3.40;;;0.95;;
71629;SDS011;59479;51.902;8.212;2023-10-08T10:34:27;4.40;;;1.10;;
71629;SDS011;59479;51.902;8.212;2023-10-08T10:36:53;4.20;;;1.08;;
71629;SDS011;59479;51.902;8.212;2023-10-08T10:39:41;2.92;;;1.10;;
71629;SDS011;59479;51.902;8.212;2023-10-08T10:42:19;4.23;;;1.00;;
71629;SDS011;59479;51.902;8.212;2023-10-08T10:44:49;3.05;;;1.13;;
71629;SDS011;59479;51.902;8.212;2023-10-08T10:47:21;3.20;;;1.10;;
71629;SDS011;59479;51.902;8.212;2023-10-08T10:49:53;3.40;;;1.00;;
71629;SDS011;59479;51.902;8.212;2023-10-08T10:52:35;2.90;;;1.00;;
71629;SDS011;59479;51.902;8.212;2023-10-08T10:55:11;2.63;;;0.90;;
71629;SDS011;59479;51.902;8.212;2023-10-08T10:57:40;2.88;;;1.35;;
71629;SDS011;59479;51.902;8.212;2023-10-08T11:00:07;6.00;;;1.20;;
71629;SDS011;59479;51.902;8.212;2023-10-08T11:02:52;3.00;;;1.08;;
71629;SDS011;59479;51.902;8.212;2023-10-08T11:05:21;3.78;;;0.93;;
71629;SDS011;59479;51.902;8.212;2023-10-08T11:07:53;3.80;;;1.20;;
71629;SDS011;59479;51.902;8.212;2023-10-08T11:10:25;3.72;;;1.02;;
71629;SDS011;59479;51.902;8.212;2023-10-08T11:12:52;4.18;;;0.95;;
71629;SDS011;59479;51.902;8.212;2023-10-08T11:15:21;7.68;;;1.50;;
71629;SDS011;59479;51.902;8.212;2023-10-08T11:17:48;4.93;;;0.90;;
71629;SDS011;59479;51.902;8.212;2023-10-08T11:20:25;2.53;;;1.00;;
71629;SDS011;59479;51.902;8.212;2023-10-08T11:22:51;5.93;;;1.33;;
71629;SDS011;59479;51.902;8.212;2023-10-08T11:25:22;4.32;;;1.08;;
71629;SDS011;59479;51.902;8.212;2023-10-08T11:27:51;3.03;;;1.10;;
71629;SDS011;59479;51.902;8.212;2023-10-08T11:30:17;2.88;;;0.82;;
71629;SDS011;59479;51.902;8.212;2023-10-08T11:32:43;4.93;;;1.20;;
71629;SDS011;59479;51.902;8.212;2023-10-08T11:35:14;4.25;;;1.00;;
71629;SDS011;59479;51.902;8.212;2023-10-08T11:37:44;3.75;;;1.27;;
71629;SDS011;59479;51.902;8.212;2023-10-08T11:40:22;3.28;;;1.10;;
71629;SDS011;59479;51.902;8.212;2023-10-08T11:42:56;4.90;;;1.35;;
71629;SDS011;59479;51.902;8.212;2023-10-08T11:45:27;2.53;;;0.80;;
71629;SDS011;59479;51.902;8.212;2023-10-08T11:47:53;3.90;;;1.00;;
71629;SDS011;59479;51.902;8.212;2023-10-08T11:50:22;3.00;;;1.20;;
71629;SDS011;59479;51.902;8.212;2023-10-08T11:52:56;2.78;;;1.02;;
71629;SDS011;59479;51.902;8.212;2023-10-08T11:55:31;2.78;;;1.15;;
71629;SDS011;59479;51.902;8.212;2023-10-08T11:58:03;6.07;;;0.90;;
71629;SDS011;59479;51.902;8.212;2023-10-08T12:00:39;4.78;;;1.10;;
71629;SDS011;59479;51.902;8.212;2023-10-08T12:03:09;4.95;;;1.20;;
71629;SDS011;59479;51.902;8.212;2023-10-08T12:05:44;2.78;;;0.93;;
71629;SDS011;59479;51.902;8.212;2023-10-08T12:08:16;2.92;;;0.93;;
71629;SDS011;59479;51.902;8.212;2023-10-08T12:10:43;3.00;;;1.10;;
71629;SDS011;59479;51.902;8.212;2023-10-08T12:13:09;3.17;;;1.10;;
71629;SDS011;59479;51.902;8.212;2023-10-08T12:15:35;3.80;;;1.20;;
71629;SDS011;59479;51.902;8.212;2023-10-08T12:18:04;2.88;;;0.90;;
71629;SDS011;59479;51.902;8.212;2023-10-08T12:20:34;2.92;;;1.10;;
71629;SDS011;59479;51.902;8.212;2023-10-08T12:23:02;3.10;;;1.00;;
71629;SDS011;59479;51.902;8.212;2023-10-08T12:25:28;2.60;;;0.90;;
71629;SDS011;59479;51.902;8.212;2023-10-08T12:27:53;4.57;;;1.20;;
71629;SDS011;59479;51.902;8.212;2023-10-08T12:30:19;3.17;;;1.20;;
71629;SDS011;59479;51.902;8.212;2023-10-08T12:32:44;2.60;;;0.90;;
71629;SDS011;59479;51.902;8.212;2023-10-08T12:35:11;3.85;;;1.08;;
71629;SDS011;59479;51.902;8.212;2023-10-08T12:37:39;3.45;;;1.05;;
71629;SDS011;59479;51.902;8.212;2023-10-08T12:40:05;6.80;;;1.20;;
71629;SDS011;59479;51.902;8.212;2023-10-08T12:42:47;3.55;;;1.10;;
71629;SDS011;59479;51.902;8.212;2023-10-08T12:45:13;3.65;;;0.90;;
71629;SDS011;59479;51.902;8.212;2023-10-08T12:47:38;2.70;;;0.90;;
71629;SDS011;59479;51.902;8.212;2023-10-08T12:50:04;3.97;;;1.40;;
71629;SDS011;59479;51.902;8.212;2023-10-08T12:52:33;4.40;;;1.00;;
71629;SDS011;59479;51.902;8.212;2023-10-08T12:55:02;4.82;;;1.48;;
71629;SDS011;59479;51.902;8.212;2023-10-08T12:57:29;3.92;;;1.60;;
71629;SDS011;59479;51.902;8.212;2023-10-08T12:59:58;3.55;;;1.13;;
71629;SDS011;59479;51.902;8.212;2023-10-08T13:02:24;2.47;;;0.90;;
71629;SDS011;59479;51.902;8.212;2023-10-08T13:04:53;3.60;;;0.75;;
71629;SDS011;59479;51.902;8.212;2023-10-08T13:07:24;4.15;;;1.20;;
71629;SDS011;59479;51.902;8.212;2023-10-08T13:09:51;2.83;;;0.90;;
71629;SDS011;59479;51.902;8.212;2023-10-08T13:12:17;2.60;;;1.00;;
71629;SDS011;59479;51.902;8.212;2023-10-08T13:14:43;2.87;;;1.20;;
71629;SDS011;59479;51.902;8.212;2023-10-08T13:17:10;5.13;;;1.05;;
71629;SDS011;59479;51.902;8.212;2023-10-08T13:19:36;4.28;;;1.00;;
71629;SDS011;59479;51.902;8.212;2023-10-08T13:22:02;2.63;;;0.98;;
71629;SDS011;59479;51.902;8.212;2023-10-08T13:24:32;4.37;;;1.00;;
71629;SDS011;59479;51.902;8.212;2023-10-08T13:26:58;4.38;;;0.90;;
71629;SDS011;59479;51.902;8.212;2023-10-08T13:29:24;5.50;;;1.45;;
71629;SDS011;59479;51.902;8.212;2023-10-08T13:31:51;2.92;;;1.00;;
71629;SDS011;59479;51.902;8.212;2023-10-08T13:34:19;3.63;;;1.10;;
71629;SDS011;59479;51.902;8.212;2023-10-08T13:36:44;4.70;;;1.27;;
71629;SDS011;59479;51.902;8.212;2023-10-08T13:39:14;3.00;;;1.02;;
71629;SDS011;59479;51.902;8.212;2023-10-08T13:41:46;3.03;;;1.00;;
71629;SDS011;59479;51.902;8.212;2023-10-08T13:44:13;3.37;;;1.10;;
71629;SDS011;59479;51.902;8.212;2023-10-08T13:46:39;4.80;;;1.00;;
71629;SDS011;59479;51.902;8.212;2023-10-08T13:49:08;2.90;;;1.15;;
71629;SDS011;59479;51.902;8.212;2023-10-08T13:51:35;3.28;;;1.00;;
71629;SDS011;59479;51.902;8.212;2023-10-08T13:54:03;6.18;;;0.98;;
71629;SDS011;59479;51.902;8.212;2023-10-08T13:56:31;4.57;;;1.27;;
71629;SDS011;59479;51.902;8.212;2023-10-08T13:58:58;4.30;;;1.30;;
71629;SDS011;59479;51.902;8.212;2023-10-08T14:01:40;4.07;;;0.90;;
71629;SDS011;59479;51.902;8.212;2023-10-08T14:04:08;3.72;;;1.27;;
71629;SDS011;59479;51.902;8.212;2023-10-08T14:06:37;3.60;;;0.98;;
71629;SDS011;59479;51.902;8.212;2023-10-08T14:09:06;3.30;;;0.90;;
71629;SDS011;59479;51.902;8.212;2023-10-08T14:11:37;5.30;;;1.30;;
71629;SDS011;59479;51.902;8.212;2023-10-08T14:14:02;3.40;;;1.10;;
71629;SDS011;59479;51.902;8.212;2023-10-08T14:16:35;4.83;;;1.23;;
71629;SDS011;59479;51.902;8.212;2023-10-08T14:19:01;3.03;;;0.90;;
71629;SDS011;59479;51.902;8.212;2023-10-08T14:21:29;2.88;;;0.90;;
71629;SDS011;59479;51.902;8.212;2023-10-08T14:23:58;5.32;;;1.00;;
71629;SDS011;59479;51.902;8.212;2023-10-08T14:26:28;2.53;;;1.10;;
71629;SDS011;59479;51.902;8.212;2023-10-08T14:29:01;6.22;;;0.98;;
71629;SDS011;59479;51.902;8.212;2023-10-08T14:31:35;6.70;;;1.00;;
71629;SDS011;59479;51.902;8.212;2023-10-08T14:34:03;3.85;;;1.10;;
71629;SDS011;59479;51.902;8.212;2023-10-08T14:36:45;3.13;;;0.95;;
71629;SDS011;59479;51.902;8.212;2023-10-08T14:39:33;6.63;;;1.00;;
71629;SDS011;59479;51.902;8.212;2023-10-08T14:42:18;2.70;;;0.95;;
71629;SDS011;59479;51.902;8.212;2023-10-08T14:45:02;4.97;;;1.20;;
71629;SDS011;59479;51.902;8.212;2023-10-08T14:47:28;3.95;;;1.20;;
71629;SDS011;59479;51.902;8.212;2023-10-08T14:49:54;3.47;;;0.90;;
71629;SDS011;59479;51.902;8.212;2023-10-08T14:52:19;4.10;;;1.10;;
71629;SDS011;59479;51.902;8.212;2023-10-08T14:54:45;3.00;;;1.00;;
71629;SDS011;59479;51.902;8.212;2023-10-08T14:57:14;3.75;;;1.05;;
71629;SDS011;59479;51.902;8.212;2023-10-08T14:59:40;2.70;;;1.03;;
71629;SDS011;59479;51.902;8.212;2023-10-08T15:02:06;5.47;;;1.20;;
71629;SDS011;59479;51.902;8.212;2023-10-08T15:04:32;3.47;;;1.13;;
71629;SDS011;59479;51.902;8.212;2023-10-08T15:07:00;3.97;;;1.27;;
71629;SDS011;59479;51.902;8.212;2023-10-08T15:09:26;3.00;;;0.88;;
71629;SDS011;59479;51.902;8.212;2023-10-08T15:11:52;3.13;;;0.90;;
71629;SDS011;59479;51.902;8.212;2023-10-08T15:14:18;5.38;;;1.15;;
71629;SDS011;59479;51.902;8.212;2023-10-08T15:16:45;6.43;;;1.15;;
71629;SDS011;59479;51.902;8.212;2023-10-08T15:19:17;3.95;;;1.17;;
71629;SDS011;59479;51.902;8.212;2023-10-08T15:21:43;3.47;;;1.23;;
71629;SDS011;59479;51.902;8.212;2023-10-08T15:24:08;2.57;;;0.90;;